Time;durP1;ratioP1;P1;durP2;ratioP2;P2;SDS_P1;SDS_P2;PMS_P1;PMS_P2;Temp;Humidity;BMP_temperature;BMP_pressure;BME280_temperature;BME280_humidity;BME280_pressure;Samples;Min_cycle;Max_cycle;Signal;HPM_P1;HPM_P2
2023/10/20 00:01:33;;;;;;;6.20;5.20;;;15.40;99.90;;;;;;4956572;28;20466;-74
2023/10/20 00:03:59;;;;;;;5.73;5.13;;;15.40;99.90;;;;;;4959754;28;20738;-71
2023/10/20 00:06:25;;;;;;;7.27;6.50;;;15.40;99.90;;;;;;4959252;28;20226;-72
2023/10/20 00:08:51;;;;;;;12.00;6.87;;;15.40;99.90;;;;;;4974972;28;20232;-71
2023/10/20 00:11:17;;;;;;;8.00;5.80;;;15.50;99.90;;;;;;4972960;28;20209;-73
2023/10/20 00:13:43;;;;;;;7.10;6.20;;;15.50;99.90;;;;;;4973236;28;20806;-72
2023/10/20 00:16:09;;;;;;;7.90;6.70;;;15.50;99.90;;;;;;4958774;28;20624;-73
2023/10/20 00:18:35;;;;;;;6.83;6.13;;;15.40;99.90;;;;;;4974769;28;20234;-73
2023/10/20 00:21:00;;;;;;;7.07;5.60;;;15.40;99.90;;;;;;4967473;28;21191;-73
2023/10/20 00:23:27;;;;;;;6.40;5.60;;;15.40;99.90;;;;;;4967270;28;20303;-72
2023/10/20 00:25:52;;;;;;;8.70;5.10;;;15.40;99.90;;;;;;4948981;28;20317;-74
2023/10/20 00:28:18;;;;;;;6.97;5.67;;;15.40;99.90;;;;;;4960607;28;21337;-73
2023/10/20 00:30:44;;;;;;;7.00;4.77;;;15.40;99.90;;;;;;4965475;28;20218;-72
2023/10/20 00:33:09;;;;;;;5.70;5.20;;;15.40;99.90;;;;;;4951597;28;20245;-72
2023/10/20 00:35:35;;;;;;;6.50;5.60;;;15.40;99.90;;;;;;4966889;28;20282;-74
2023/10/20 00:38:01;;;;;;;7.53;5.83;;;15.40;99.90;;;;;;4967785;28;20219;-73
2023/10/20 00:40:28;;;;;;;8.30;5.67;;;15.40;99.90;;;;;;4966693;28;20469;-73
2023/10/20 00:42:54;;;;;;;10.97;6.00;;;15.40;99.90;;;;;;4967198;28;20469;-71
2023/10/20 00:45:20;;;;;;;7.40;6.10;;;15.40;99.90;;;;;;4968157;28;20350;-73
2023/10/20 00:47:47;;;;;;;7.90;5.90;;;15.50;99.90;;;;;;4967117;28;20802;-72
2023/10/20 00:50:13;;;;;;;7.13;6.40;;;15.50;99.90;;;;;;4965681;28;20485;-72
2023/10/20 00:52:45;;;;;;;6.40;5.23;;;15.40;99.90;;;;;;4981247;28;20950;-71
2023/10/20 00:55:14;;;;;;;7.40;5.93;;;15.40;99.90;;;;;;4985415;28;20226;-73
2023/10/20 00:57:41;;;;;;;10.50;6.90;;;15.40;99.90;;;;;;4957032;28;20477;-74
2023/10/20 01:00:09;;;;;;;11.07;8.00;;;15.40;99.90;;;;;;4974672;28;20469;-71
2023/10/20 01:02:36;;;;;;;10.83;7.00;;;15.40;99.90;;;;;;4964046;28;20461;-72
2023/10/20 01:05:08;;;;;;;10.00;6.23;;;15.40;99.90;;;;;;4968017;28;20481;-72
2023/10/20 01:07:35;;;;;;;9.60;6.60;;;15.40;99.90;;;;;;4962106;28;22755;-73
2023/10/20 01:10:09;;;;;;;9.10;6.87;;;15.40;99.90;;;;;;4972534;28;20874;-73
2023/10/20 01:12:35;;;;;;;8.57;6.43;;;15.40;99.90;;;;;;4959158;28;20543;-74
2023/10/20 01:15:04;;;;;;;9.83;6.60;;;15.40;99.90;;;;;;4956312;28;20481;-73
2023/10/20 01:17:30;;;;;;;8.97;7.37;;;15.40;99.90;;;;;;4958393;28;20543;-71
2023/10/20 01:20:00;;;;;;;11.17;8.33;;;15.40;99.90;;;;;;4957856;28;20478;-73
2023/10/20 01:22:26;;;;;;;9.57;7.90;;;15.40;99.90;;;;;;4958625;28;20461;-72
2023/10/20 01:24:51;;;;;;;12.93;8.70;;;15.40;99.90;;;;;;4957920;28;21002;-72
2023/10/20 01:27:19;;;;;;;9.43;7.60;;;15.40;99.90;;;;;;4963901;28;20227;-73
2023/10/20 01:29:44;;;;;;;10.80;7.30;;;15.40;99.90;;;;;;4966732;28;20525;-72
2023/10/20 01:32:11;;;;;;;8.37;7.20;;;15.40;99.90;;;;;;4973258;28;20227;-72
2023/10/20 01:34:36;;;;;;;8.13;7.30;;;15.40;99.90;;;;;;4967575;28;20690;-71
2023/10/20 01:37:02;;;;;;;9.13;6.90;;;15.40;99.90;;;;;;4966608;28;20578;-72
2023/10/20 01:39:29;;;;;;;10.00;6.07;;;15.40;99.90;;;;;;4949515;28;20226;-72
2023/10/20 01:41:55;;;;;;;9.10;6.90;;;15.40;99.90;;;;;;4964791;28;20707;-74
2023/10/20 01:44:21;;;;;;;7.73;5.93;;;15.40;99.90;;;;;;4965387;28;20485;-72
2023/10/20 01:46:50;;;;;;;9.83;6.97;;;15.40;99.90;;;;;;4966235;28;20539;-73
2023/10/20 01:49:18;;;;;;;9.47;7.30;;;15.40;99.90;;;;;;4966549;28;20501;-73
2023/10/20 01:51:44;;;;;;;7.40;6.60;;;15.40;99.90;;;;;;4966587;28;21203;-71
2023/10/20 01:54:09;;;;;;;7.33;6.17;;;15.40;99.90;;;;;;4967637;28;20475;-73
2023/10/20 01:56:35;;;;;;;11.07;7.23;;;15.40;99.90;;;;;;4960900;28;20240;-71
2023/10/20 01:59:03;;;;;;;9.47;7.60;;;15.40;99.90;;;;;;4971270;28;20260;-74
2023/10/20 02:01:29;;;;;;;7.80;6.67;;;15.40;99.90;;;;;;4966460;28;20461;-72
2023/10/20 02:03:55;;;;;;;7.50;6.60;;;15.40;99.90;;;;;;4969853;28;20477;-74
2023/10/20 02:06:21;;;;;;;7.73;6.50;;;15.40;99.90;;;;;;4967855;28;20892;-72
2023/10/20 02:08:46;;;;;;;7.37;6.20;;;15.40;99.90;;;;;;4975670;28;20244;-73
2023/10/20 02:11:12;;;;;;;6.90;6.20;;;15.40;99.90;;;;;;4969267;28;20225;-73
2023/10/20 02:13:42;;;;;;;7.20;5.87;;;15.40;99.90;;;;;;4961572;28;20243;-72
2023/10/20 02:16:10;;;;;;;6.30;5.17;;;15.40;99.90;;;;;;4961166;28;20236;-74
2023/10/20 02:18:36;;;;;;;7.53;6.20;;;15.40;99.90;;;;;;4979526;28;20556;-72
2023/10/20 02:21:04;;;;;;;6.07;5.47;;;15.40;99.90;;;;;;4953627;28;21096;-73
2023/10/20 02:23:38;;;;;;;5.53;5.03;;;15.40;99.90;;;;;;4976334;28;20479;-73
2023/10/20 02:26:06;;;;;;;6.63;6.03;;;15.40;99.90;;;;;;4967746;28;20465;-72
2023/10/20 02:28:33;;;;;;;7.80;5.20;;;15.30;99.90;;;;;;4976917;28;20464;-72
2023/10/20 02:31:01;;;;;;;6.57;4.90;;;15.30;99.90;;;;;;4965528;28;20473;-73
2023/10/20 02:33:27;;;;;;;5.13;4.63;;;15.30;99.90;;;;;;4969932;28;20528;-73
2023/10/20 02:35:56;;;;;;;7.63;5.67;;;15.30;99.90;;;;;;4987481;28;21085;-73
2023/10/20 02:38:22;;;;;;;8.90;4.50;;;15.30;99.90;;;;;;4990483;28;20699;-73
2023/10/20 02:40:54;;;;;;;5.43;4.87;;;15.40;99.90;;;;;;4970441;28;20457;-73
2023/10/20 02:43:22;;;;;;;5.43;4.90;;;15.30;99.90;;;;;;4978530;28;20475;-72
2023/10/20 02:45:53;;;;;;;6.90;5.40;;;15.30;99.90;;;;;;4973663;28;20599;-72
2023/10/20 02:48:19;;;;;;;6.53;5.70;;;15.40;99.90;;;;;;4972881;28;20472;-74
2023/10/20 02:50:46;;;;;;;6.30;5.30;;;15.40;99.90;;;;;;4992043;28;20575;-73
2023/10/20 02:53:16;;;;;;;7.73;4.83;;;15.40;99.90;;;;;;4983357;28;20488;-71
2023/10/20 02:55:43;;;;;;;6.03;5.10;;;15.40;99.90;;;;;;4967029;28;20469;-72
2023/10/20 02:58:12;;;;;;;6.60;4.83;;;15.40;99.90;;;;;;4958809;28;20473;-73
2023/10/20 03:00:45;;;;;;;7.77;5.80;;;15.30;99.90;;;;;;4976713;28;20526;-72
2023/10/20 03:03:13;;;;;;;6.17;4.93;;;15.40;99.90;;;;;;4977000;28;20940;-72
2023/10/20 03:05:43;;;;;;;5.87;4.87;;;15.30;99.90;;;;;;4966135;28;20465;-72
2023/10/20 03:08:10;;;;;;;6.53;5.47;;;15.40;99.90;;;;;;4967448;28;20458;-73
2023/10/20 03:10:36;;;;;;;7.87;5.73;;;15.30;99.90;;;;;;4980070;28;20440;-73
2023/10/20 03:13:06;;;;;;;6.90;5.50;;;15.30;99.90;;;;;;4976221;28;20468;-73
2023/10/20 03:15:33;;;;;;;7.67;5.90;;;15.30;99.90;;;;;;4976618;28;21100;-74
2023/10/20 03:17:59;;;;;;;7.30;6.07;;;15.40;99.90;;;;;;4995397;28;20456;-72
2023/10/20 03:20:28;;;;;;;5.90;5.30;;;15.30;99.90;;;;;;4960768;28;20515;-73
2023/10/20 03:22:54;;;;;;;6.23;5.63;;;15.40;99.90;;;;;;4967175;28;20230;-73
2023/10/20 03:25:20;;;;;;;5.83;5.30;;;15.30;99.90;;;;;;4973235;28;21248;-72
2023/10/20 03:27:47;;;;;;;5.93;5.33;;;15.30;99.90;;;;;;4969983;28;20476;-72
2023/10/20 03:30:13;;;;;;;5.80;5.20;;;15.30;99.90;;;;;;4964690;28;20457;-72
2023/10/20 03:32:38;;;;;;;7.20;6.40;;;15.40;99.90;;;;;;4966836;28;21059;-72
2023/10/20 03:35:07;;;;;;;8.10;5.73;;;15.30;99.90;;;;;;4988729;28;20237;-72
2023/10/20 03:37:34;;;;;;;6.00;5.30;;;15.30;99.90;;;;;;4977970;28;20584;-72
2023/10/20 03:40:01;;;;;;;14.13;5.80;;;15.30;99.90;;;;;;4980925;28;20468;-72
2023/10/20 03:42:27;;;;;;;6.83;5.77;;;15.30;99.90;;;;;;4969170;28;20500;-72
2023/10/20 03:44:53;;;;;;;8.23;7.23;;;15.30;99.90;;;;;;4983156;28;20316;-73
2023/10/20 03:47:21;;;;;;;6.70;5.70;;;15.30;99.90;;;;;;4973643;28;20484;-72
2023/10/20 03:49:48;;;;;;;8.10;6.80;;;15.20;99.90;;;;;;4966900;28;21003;-72
2023/10/20 03:52:14;;;;;;;7.43;6.07;;;15.30;99.90;;;;;;4961094;28;20488;-73
2023/10/20 03:54:40;;;;;;;8.70;6.27;;;15.20;99.90;;;;;;4967402;28;20477;-73
2023/10/20 03:57:06;;;;;;;6.30;5.80;;;15.20;99.90;;;;;;4975725;28;20240;-73
2023/10/20 03:59:32;;;;;;;8.60;6.70;;;15.20;99.90;;;;;;4988841;28;20345;-73
2023/10/20 04:01:57;;;;;;;9.47;5.63;;;15.20;99.90;;;;;;4967147;28;20229;-72
2023/10/20 04:04:23;;;;;;;7.10;6.07;;;15.20;99.90;;;;;;4968906;28;20478;-73
2023/10/20 04:06:49;;;;;;;6.80;6.10;;;15.20;99.90;;;;;;4974254;28;20237;-73
2023/10/20 04:09:19;;;;;;;6.60;5.90;;;15.20;99.90;;;;;;4965629;28;20226;-71
2023/10/20 04:11:44;;;;;;;6.97;6.00;;;15.20;99.90;;;;;;4966716;28;20577;-73
2023/10/20 04:14:10;;;;;;;7.00;5.97;;;15.20;99.90;;;;;;4967702;28;20480;-74
2023/10/20 04:16:39;;;;;;;7.63;6.53;;;15.20;99.90;;;;;;4968578;28;20237;-73
2023/10/20 04:19:15;;;;;;;9.57;6.87;;;15.20;99.90;;;;;;4967639;28;20238;-74
2023/10/20 04:21:43;;;;;;;8.30;7.43;;;15.20;99.90;;;;;;4973625;28;20932;-73
2023/10/20 04:24:12;;;;;;;8.20;6.60;;;15.10;99.90;;;;;;4979223;28;20864;-72
2023/10/20 04:26:41;;;;;;;8.83;6.23;;;15.10;99.90;;;;;;4992681;28;20985;-73
2023/10/20 05:03:57;;;;;;;8.60;7.20;;;15.10;99.90;;;;;;4962220;28;20505;-73
2023/10/20 05:06:40;;;;;;;8.67;7.77;;;15.00;99.90;;;;;;4955645;28;20254;-73
2023/10/20 05:09:09;;;;;;;9.47;7.87;;;15.00;99.90;;;;;;4977153;28;20554;-72
2023/10/20 05:11:34;;;;;;;7.80;7.00;;;15.00;99.90;;;;;;4957950;28;20466;-72
2023/10/20 05:14:00;;;;;;;10.00;7.47;;;15.00;99.90;;;;;;4969883;28;20466;-74
2023/10/20 05:16:28;;;;;;;10.13;7.33;;;15.00;99.90;;;;;;4964258;28;20229;-73
2023/10/20 05:18:55;;;;;;;8.27;6.83;;;15.00;99.90;;;;;;4962867;28;20225;-73
2023/10/20 05:21:21;;;;;;;9.33;6.90;;;14.90;99.90;;;;;;4958358;28;20479;-73
2023/10/20 05:23:49;;;;;;;7.43;6.53;;;15.00;99.90;;;;;;4961779;28;20456;-71
2023/10/20 05:26:15;;;;;;;8.20;6.00;;;14.90;99.90;;;;;;4969417;28;20249;-72
2023/10/20 05:28:41;;;;;;;8.33;7.00;;;14.90;99.90;;;;;;4969218;28;20479;-73
2023/10/20 05:31:07;;;;;;;6.13;5.47;;;14.90;99.90;;;;;;4949610;28;20222;-73
2023/10/20 05:33:33;;;;;;;6.60;5.80;;;14.90;99.90;;;;;;4937765;28;20226;-73
2023/10/20 05:36:05;;;;;;;8.17;7.27;;;14.90;99.90;;;;;;4956349;28;20477;-73
2023/10/20 05:38:31;;;;;;;8.50;6.17;;;14.90;99.90;;;;;;4954152;28;20210;-72
2023/10/20 05:40:59;;;;;;;7.60;6.40;;;14.90;99.90;;;;;;4957078;28;20970;-73
2023/10/20 05:43:25;;;;;;;7.10;6.40;;;14.90;99.90;;;;;;4950718;28;20515;-73
2023/10/20 05:45:51;;;;;;;7.00;6.27;;;14.90;99.90;;;;;;4961563;28;20505;-72
2023/10/20 05:48:17;;;;;;;7.57;6.87;;;14.90;99.90;;;;;;4954108;28;20523;-74
2023/10/20 05:50:42;;;;;;;7.27;6.23;;;14.90;99.90;;;;;;4973271;28;20356;-72
2023/10/20 05:53:08;;;;;;;6.87;6.17;;;14.90;99.90;;;;;;4974209;28;20301;-73
2023/10/20 05:55:34;;;;;;;8.63;6.53;;;14.90;99.90;;;;;;4945236;28;20234;-72
2023/10/20 05:58:00;;;;;;;7.47;5.77;;;14.90;99.90;;;;;;4954105;28;20228;-71
2023/10/20 06:00:26;;;;;;;7.63;5.87;;;15.00;99.90;;;;;;4970044;28;20225;-73
2023/10/20 06:02:52;;;;;;;5.90;5.30;;;14.90;99.90;;;;;;4963356;28;20501;-73
2023/10/20 06:05:18;;;;;;;7.67;6.37;;;14.90;99.90;;;;;;4968498;28;20245;-72
2023/10/20 06:07:44;;;;;;;6.97;6.07;;;14.90;99.90;;;;;;4955796;28;20222;-73
2023/10/20 06:10:11;;;;;;;7.37;5.90;;;14.90;99.90;;;;;;4956382;28;20485;-72
2023/10/20 06:12:38;;;;;;;6.20;5.53;;;14.90;99.90;;;;;;4954169;28;20230;-72
2023/10/20 06:15:08;;;;;;;6.30;5.70;;;14.90;99.90;;;;;;4959523;28;20485;-72
2023/10/20 06:17:34;;;;;;;7.60;6.30;;;14.90;99.90;;;;;;4960661;28;20601;-73
2023/10/20 06:20:05;;;;;;;9.90;6.67;;;14.90;99.90;;;;;;4945388;28;20880;-72
2023/10/20 06:22:31;;;;;;;7.07;6.37;;;14.90;99.90;;;;;;4965525;28;20226;-71
2023/10/20 06:24:58;;;;;;;9.47;7.10;;;14.90;99.90;;;;;;4966132;28;20581;-73
2023/10/20 06:27:23;;;;;;;8.23;7.33;;;14.80;99.90;;;;;;4952428;28;20477;-71
2023/10/20 06:30:06;;;;;;;8.87;6.10;;;14.80;99.90;;;;;;4964359;28;20515;-72
2023/10/20 06:32:41;;;;;;;9.50;7.77;;;14.80;99.90;;;;;;4982416;28;20312;-73
2023/10/20 06:35:09;;;;;;;9.20;6.90;;;14.80;99.90;;;;;;4969876;28;20468;-71
2023/10/20 06:37:56;;;;;;;8.00;6.67;;;14.70;99.90;;;;;;4958823;28;20508;-71
2023/10/20 06:40:22;;;;;;;9.50;7.13;;;14.70;99.90;;;;;;4965908;28;20466;-73
2023/10/20 06:42:48;;;;;;;8.90;6.80;;;14.70;99.90;;;;;;4956249;28;20551;-72
2023/10/20 06:45:13;;;;;;;9.03;7.70;;;14.70;99.90;;;;;;4964327;28;20353;-72
2023/10/20 06:47:40;;;;;;;11.00;6.70;;;14.70;99.90;;;;;;4962161;28;20235;-72
2023/10/20 06:50:07;;;;;;;9.90;7.23;;;14.70;99.90;;;;;;4962207;28;20222;-73
2023/10/20 06:52:35;;;;;;;8.70;6.87;;;14.70;99.90;;;;;;4984995;28;20522;-73
2023/10/20 06:55:05;;;;;;;7.80;6.67;;;14.70;99.90;;;;;;4966227;28;20508;-72
2023/10/20 06:57:30;;;;;;;8.73;7.47;;;14.70;99.90;;;;;;4976918;28;20598;-73
2023/10/20 06:59:56;;;;;;;8.77;7.20;;;14.70;99.90;;;;;;4969006;28;20546;-72
2023/10/20 07:02:22;;;;;;;7.20;6.30;;;14.70;99.90;;;;;;4967170;28;20232;-73
2023/10/20 07:04:50;;;;;;;9.90;7.70;;;14.70;99.90;;;;;;4982935;28;20230;-72
2023/10/20 07:07:17;;;;;;;10.33;7.20;;;14.70;99.90;;;;;;4963482;28;20313;-72
2023/10/20 07:09:44;;;;;;;8.30;7.10;;;14.70;99.90;;;;;;4958710;28;21232;-71
2023/10/20 07:12:11;;;;;;;10.13;8.10;;;14.70;99.90;;;;;;4969092;28;20583;-73
2023/10/20 07:14:38;;;;;;;11.23;7.80;;;14.70;99.90;;;;;;4962758;28;21077;-72
2023/10/20 07:17:06;;;;;;;9.77;8.50;;;14.70;99.90;;;;;;4953813;28;20468;-73
2023/10/20 07:19:33;;;;;;;12.87;9.10;;;14.60;99.90;;;;;;4966013;28;20584;-72
2023/10/20 07:22:00;;;;;;;9.30;7.70;;;14.60;99.90;;;;;;4986514;28;21101;-73
2023/10/20 07:24:26;;;;;;;10.67;7.20;;;14.70;99.90;;;;;;4980088;28;21262;-73
2023/10/20 07:26:53;;;;;;;11.70;8.50;;;14.70;99.90;;;;;;4960322;28;20476;-74
2023/10/20 07:29:18;;;;;;;10.30;7.90;;;14.60;99.90;;;;;;4955110;28;21015;-71
2023/10/20 07:31:47;;;;;;;14.07;10.03;;;14.60;99.90;;;;;;4955875;28;20461;-72
2023/10/20 07:34:13;;;;;;;13.83;8.87;;;14.60;99.90;;;;;;4962826;28;20236;-74
2023/10/20 07:36:40;;;;;;;17.20;10.10;;;14.60;99.90;;;;;;4966298;28;20472;-74
2023/10/20 07:39:08;;;;;;;11.67;8.60;;;14.60;99.90;;;;;;4974859;28;20598;-72
2023/10/20 07:41:35;;;;;;;16.80;10.20;;;14.60;99.90;;;;;;4984099;28;20612;-72
2023/10/20 07:44:02;;;;;;;13.67;10.33;;;14.60;99.90;;;;;;4984335;28;21094;-73
2023/10/20 07:46:27;;;;;;;13.10;10.47;;;14.60;99.90;;;;;;4982033;28;20522;-72
2023/10/20 07:48:53;;;;;;;12.63;9.57;;;14.60;99.90;;;;;;4983664;28;20460;-73
2023/10/20 07:51:19;;;;;;;12.80;11.00;;;14.60;99.90;;;;;;4983207;28;20225;-72
2023/10/20 07:53:45;;;;;;;14.93;10.73;;;14.60;99.90;;;;;;4984861;28;20245;-71
2023/10/20 07:56:11;;;;;;;11.80;10.07;;;14.60;99.90;;;;;;4982456;28;20225;-71
2023/10/20 07:58:36;;;;;;;13.20;10.33;;;14.60;99.90;;;;;;4983810;28;20332;-73
2023/10/20 08:01:02;;;;;;;14.67;11.03;;;14.60;99.90;;;;;;4983993;28;20292;-72
2023/10/20 08:03:28;;;;;;;13.10;10.93;;;14.60;99.90;;;;;;4985112;28;20811;-72
2023/10/20 08:05:54;;;;;;;12.60;9.63;;;14.60;99.90;;;;;;4983362;28;20236;-71
2023/10/20 08:08:20;;;;;;;13.00;10.63;;;14.50;99.90;;;;;;4982261;28;20225;-72
2023/10/20 08:10:45;;;;;;;16.73;10.90;;;14.50;99.90;;;;;;4983731;28;20221;-73
2023/10/20 08:13:11;;;;;;;13.17;10.30;;;14.50;99.90;;;;;;4984344;28;20559;-71
2023/10/20 08:15:38;;;;;;;14.93;11.40;;;14.60;99.90;;;;;;4981289;28;20233;-72
2023/10/20 08:18:04;;;;;;;16.23;11.30;;;14.50;99.90;;;;;;4980468;28;20614;-72
2023/10/20 08:20:30;;;;;;;21.57;10.83;;;14.60;99.90;;;;;;4983207;28;20475;-73
2023/10/20 08:22:56;;;;;;;15.53;11.67;;;14.60;99.90;;;;;;4983210;28;20952;-71
2023/10/20 08:25:22;;;;;;;15.00;11.27;;;14.50;99.90;;;;;;4981554;28;20253;-71
2023/10/20 08:27:48;;;;;;;15.87;10.73;;;14.60;99.90;;;;;;4982489;28;20228;-73
2023/10/20 08:30:15;;;;;;;13.27;10.97;;;14.50;99.90;;;;;;4982588;28;20309;-73
2023/10/20 08:32:42;;;;;;;13.07;10.20;;;14.50;99.90;;;;;;4957974;28;20484;-72
2023/10/20 08:35:08;;;;;;;20.93;11.10;;;14.60;99.90;;;;;;4945278;28;20486;-73
2023/10/20 08:37:34;;;;;;;13.57;10.60;;;14.60;99.90;;;;;;4934346;28;20494;-73
2023/10/20 08:40:00;;;;;;;11.20;10.00;;;14.60;99.90;;;;;;4932442;28;20595;-72
2023/10/20 08:42:25;;;;;;;14.10;10.63;;;14.60;99.90;;;;;;4950047;28;20550;-72
2023/10/20 08:44:51;;;;;;;15.17;10.90;;;14.60;99.90;;;;;;4938831;28;20328;-74
2023/10/20 08:47:19;;;;;;;16.90;11.67;;;14.60;99.90;;;;;;4928520;28;20320;-73
2023/10/20 08:49:46;;;;;;;15.20;11.37;;;14.60;99.90;;;;;;4951084;28;20852;-74
2023/10/20 08:52:12;;;;;;;16.63;11.00;;;14.60;99.90;;;;;;4937703;28;20481;-72
2023/10/20 08:54:39;;;;;;;12.90;10.93;;;14.60;99.90;;;;;;4942681;28;20488;-73
2023/10/20 08:57:05;;;;;;;15.37;10.97;;;14.60;99.90;;;;;;4942942;28;20487;-73
2023/10/20 08:59:35;;;;;;;14.93;10.87;;;14.60;99.90;;;;;;4961445;28;20505;-72
2023/10/20 09:02:02;;;;;;;13.27;10.87;;;14.60;99.90;;;;;;4954790;28;20523;-74
2023/10/20 09:04:28;;;;;;;14.77;10.30;;;14.60;99.90;;;;;;4955687;28;20592;-73
2023/10/20 09:06:54;;;;;;;14.87;11.17;;;14.60;99.90;;;;;;4956239;28;20524;-74
2023/10/20 09:09:20;;;;;;;16.27;11.53;;;14.60;99.90;;;;;;4960437;28;20233;-73
2023/10/20 09:11:47;;;;;;;15.50;10.47;;;14.60;99.90;;;;;;4962288;28;20472;-74
2023/10/20 09:14:14;;;;;;;12.60;9.80;;;14.60;99.90;;;;;;4965995;28;20499;-73
2023/10/20 09:16:40;;;;;;;14.93;11.87;;;14.70;99.90;;;;;;4955590;28;20457;-70
2023/10/20 09:19:10;;;;;;;16.17;12.00;;;14.70;99.90;;;;;;4960019;28;20509;-71
2023/10/20 09:21:41;;;;;;;18.10;10.73;;;14.70;99.90;;;;;;4966973;28;20616;-71
2023/10/20 09:24:08;;;;;;;14.97;11.07;;;14.60;99.90;;;;;;4960924;28;21061;-73
2023/10/20 09:26:36;;;;;;;11.83;9.90;;;14.70;99.90;;;;;;4957788;28;20466;-73
2023/10/20 09:29:05;;;;;;;12.30;10.30;;;14.70;99.90;;;;;;4957395;28;20473;-72
2023/10/20 09:31:31;;;;;;;16.70;10.60;;;14.70;99.90;;;;;;4942500;28;20493;-71
2023/10/20 09:33:57;;;;;;;13.27;10.53;;;14.70;99.90;;;;;;4960755;28;20465;-72
2023/10/20 09:36:23;;;;;;;13.20;9.67;;;14.70;99.90;;;;;;4956389;28;20480;-73
2023/10/20 09:38:53;;;;;;;14.27;10.00;;;14.70;99.90;;;;;;4957445;28;20456;-73
2023/10/20 09:41:24;;;;;;;13.40;10.23;;;14.80;99.90;;;;;;4955367;28;20462;-72
2023/10/20 09:44:06;;;;;;;19.73;11.70;;;14.80;99.90;;;;;;4966830;28;20465;-72
2023/10/20 09:46:53;;;;;;;13.37;9.53;;;14.80;99.90;;;;;;4974826;28;20928;-73
2023/10/20 09:49:27;;;;;;;16.60;11.50;;;14.90;99.90;;;;;;4959197;28;20584;-72
2023/10/20 09:51:55;;;;;;;13.47;10.23;;;14.90;99.90;;;;;;4961198;28;20473;-73
2023/10/20 09:54:25;;;;;;;15.50;11.27;;;14.90;99.90;;;;;;4947857;28;20473;-73
2023/10/20 09:56:51;;;;;;;12.67;9.70;;;14.90;99.90;;;;;;4933497;28;20473;-73
2023/10/20 09:59:23;;;;;;;13.70;10.50;;;15.00;99.90;;;;;;4955430;28;20584;-72
2023/10/20 10:01:51;;;;;;;11.73;9.37;;;15.00;99.90;;;;;;4951175;28;20465;-73
2023/10/20 10:04:36;;;;;;;13.80;10.63;;;15.00;99.90;;;;;;4967523;28;21097;-73
2023/10/20 10:07:03;;;;;;;11.77;10.23;;;15.00;99.90;;;;;;4949102;28;20473;-73
2023/10/20 10:09:39;;;;;;;12.30;9.23;;;15.00;99.90;;;;;;4951089;28;20576;-72
2023/10/20 10:12:09;;;;;;;12.80;11.33;;;15.10;99.90;;;;;;4984223;28;20464;-73
2023/10/20 10:14:34;;;;;;;12.23;9.07;;;15.10;99.90;;;;;;4968192;28;20480;-74
2023/10/20 10:17:01;;;;;;;22.90;10.10;;;15.10;99.90;;;;;;4963555;28;20476;-73
2023/10/20 10:19:27;;;;;;;14.10;10.80;;;15.10;99.90;;;;;;4948407;28;20231;-74
2023/10/20 10:22:00;;;;;;;14.40;11.47;;;15.10;99.90;;;;;;4939331;28;20469;-74
2023/10/20 10:24:26;;;;;;;15.17;11.20;;;15.10;99.90;;;;;;4949738;28;20482;-74
2023/10/20 10:26:53;;;;;;;11.67;10.27;;;15.10;99.90;;;;;;4979515;28;20462;-74
2023/10/20 10:29:39;;;;;;;11.13;9.50;;;15.10;99.90;;;;;;4942443;28;20997;-73
2023/10/20 10:32:13;;;;;;;13.93;10.30;;;15.10;99.90;;;;;;4951652;28;20478;-73
2023/10/20 10:34:47;;;;;;;11.00;9.57;;;15.20;99.90;;;;;;4969959;28;20457;-73
2023/10/20 10:37:15;;;;;;;11.23;10.00;;;15.20;99.90;;;;;;4969883;28;21069;-72
2023/10/20 10:39:41;;;;;;;14.77;9.97;;;15.20;99.90;;;;;;4954133;28;20463;-73
2023/10/20 10:42:07;;;;;;;14.60;10.43;;;15.20;99.90;;;;;;4952490;28;20600;-73
2023/10/20 10:44:34;;;;;;;13.53;10.03;;;15.20;99.90;;;;;;4949341;28;20226;-74
2023/10/20 10:47:00;;;;;;;16.57;9.53;;;15.30;99.90;;;;;;4925809;28;20778;-74
2023/10/20 10:49:26;;;;;;;14.10;10.30;;;15.30;99.90;;;;;;4938840;28;20513;-72
2023/10/20 10:51:52;;;;;;;12.53;9.47;;;15.40;99.90;;;;;;4943210;28;20562;-73
2023/10/20 10:54:18;;;;;;;13.40;10.73;;;15.40;99.90;;;;;;4932573;28;20229;-73
2023/10/20 10:56:45;;;;;;;12.20;9.77;;;15.40;99.90;;;;;;4920997;28;20464;-73
2023/10/20 10:59:11;;;;;;;12.00;10.20;;;15.40;99.90;;;;;;4921652;28;20464;-74
2023/10/20 11:01:41;;;;;;;12.53;9.50;;;15.50;99.90;;;;;;4920658;28;20464;-73
2023/10/20 11:04:10;;;;;;;11.70;10.27;;;15.50;99.90;;;;;;4922623;28;20481;-74
2023/10/20 11:06:38;;;;;;;11.10;9.57;;;15.50;99.90;;;;;;4916398;28;20522;-73
2023/10/20 11:09:11;;;;;;;10.80;8.30;;;15.50;99.90;;;;;;4920171;28;20470;-73
2023/10/20 11:11:42;;;;;;;11.57;9.57;;;15.60;99.90;;;;;;4984908;28;20556;-73
2023/10/20 11:14:09;;;;;;;11.23;9.20;;;15.60;99.90;;;;;;4962719;28;20476;-73
2023/10/20 11:16:38;;;;;;;10.43;9.00;;;15.60;99.90;;;;;;4957712;28;20919;-73
2023/10/20 11:19:04;;;;;;;11.43;9.53;;;15.60;99.90;;;;;;4963033;28;20500;-74
2023/10/20 11:21:45;;;;;;;10.97;9.87;;;15.60;99.90;;;;;;4988639;28;21065;-74
2023/10/20 11:24:12;;;;;;;11.20;9.30;;;15.60;99.90;;;;;;4972833;28;20943;-73
2023/10/20 11:26:37;;;;;;;12.03;9.53;;;15.60;99.90;;;;;;4950936;28;20547;-74
2023/10/20 11:29:06;;;;;;;13.20;8.90;;;15.60;99.90;;;;;;4971137;28;21016;-73
2023/10/20 11:31:31;;;;;;;8.83;7.50;;;15.70;99.90;;;;;;4970345;28;20233;-73
2023/10/20 11:33:58;;;;;;;11.57;10.17;;;15.70;99.90;;;;;;4938725;28;20498;-73
2023/10/20 11:36:23;;;;;;;9.87;7.93;;;15.70;99.90;;;;;;4951000;28;20222;-73
2023/10/20 11:38:49;;;;;;;8.90;7.70;;;15.80;99.90;;;;;;4954867;28;20534;-74
2023/10/20 11:41:15;;;;;;;10.70;7.00;;;15.80;99.90;;;;;;4969305;28;20268;-72
2023/10/20 11:43:40;;;;;;;7.53;6.57;;;15.80;99.90;;;;;;4970883;28;20300;-74
2023/10/20 11:46:10;;;;;;;7.27;5.87;;;15.90;99.90;;;;;;4949512;28;20229;-73
2023/10/20 11:48:35;;;;;;;11.00;6.30;;;15.90;99.90;;;;;;4951838;28;20222;-73
2023/10/20 11:51:01;;;;;;;6.40;5.77;;;15.90;99.90;;;;;;4951053;28;20478;-73
2023/10/20 11:53:27;;;;;;;8.17;5.30;;;16.00;99.90;;;;;;4985412;28;20226;-73
2023/10/20 11:55:52;;;;;;;8.10;6.30;;;16.00;99.90;;;;;;4953484;28;20292;-72
2023/10/20 11:58:18;;;;;;;5.43;4.80;;;16.00;99.90;;;;;;4973995;28;20228;-73
2023/10/20 12:00:44;;;;;;;7.03;5.77;;;16.00;99.90;;;;;;4979555;28;20229;-74
2023/10/20 12:03:10;;;;;;;6.90;5.60;;;16.00;99.90;;;;;;4982537;28;20337;-73
2023/10/20 12:05:39;;;;;;;6.27;5.27;;;16.10;99.90;;;;;;4977771;28;20315;-73
2023/10/20 12:08:05;;;;;;;5.73;5.17;;;16.10;99.90;;;;;;4981377;28;20226;-72
2023/10/20 12:10:32;;;;;;;6.50;5.33;;;16.10;99.90;;;;;;4989068;28;20475;-72
2023/10/20 12:13:02;;;;;;;6.80;5.10;;;16.10;99.90;;;;;;4990125;28;20463;-72
2023/10/20 12:15:30;;;;;;;5.73;5.20;;;16.10;99.90;;;;;;4979616;28;21017;-75
2023/10/20 12:17:56;;;;;;;5.67;5.10;;;16.10;99.90;;;;;;4980355;28;20499;-75
2023/10/20 12:20:21;;;;;;;5.33;4.83;;;16.10;99.90;;;;;;4970569;28;20474;-72
2023/10/20 12:22:48;;;;;;;5.10;4.10;;;16.20;99.90;;;;;;4952625;28;20553;-73
2023/10/20 12:25:13;;;;;;;3.80;3.50;;;16.20;99.90;;;;;;4952310;28;20340;-74
2023/10/20 12:27:40;;;;;;;3.47;3.23;;;16.30;99.90;;;;;;4952036;28;20456;-72
2023/10/20 12:30:06;;;;;;;4.50;3.90;;;16.30;99.90;;;;;;4952716;28;20517;-72
2023/10/20 12:32:32;;;;;;;6.33;3.70;;;16.30;99.90;;;;;;4959422;28;20221;-73
2023/10/20 12:34:57;;;;;;;5.13;3.87;;;16.20;99.90;;;;;;4968297;28;20478;-75
2023/10/20 12:37:23;;;;;;;4.73;4.20;;;16.30;99.90;;;;;;4952907;28;20791;-74
2023/10/20 12:39:50;;;;;;;4.13;3.77;;;16.30;99.90;;;;;;4965679;28;20813;-74
2023/10/20 12:42:16;;;;;;;3.97;3.57;;;16.30;99.90;;;;;;4963652;28;20323;-73
2023/10/20 12:44:42;;;;;;;2.50;2.30;;;16.40;99.90;;;;;;4957003;28;20470;-75
2023/10/20 12:47:08;;;;;;;1.60;1.50;;;16.50;99.90;;;;;;4980992;28;20329;-74
2023/10/20 12:49:33;;;;;;;3.10;2.80;;;16.50;99.90;;;;;;4965118;28;20954;-74
2023/10/20 12:51:59;;;;;;;2.27;2.07;;;16.50;99.90;;;;;;4950334;28;20664;-75
2023/10/20 12:54:24;;;;;;;1.70;1.60;;;16.50;99.90;;;;;;4967912;28;20707;-75
2023/10/20 12:56:50;;;;;;;2.30;2.20;;;16.50;99.90;;;;;;4977131;28;20214;-74
2023/10/20 12:59:16;;;;;;;2.10;1.90;;;16.50;99.90;;;;;;4958075;28;20280;-74
2023/10/20 13:01:42;;;;;;;1.90;1.80;;;16.50;99.90;;;;;;4979530;28;20221;-74
2023/10/20 13:04:07;;;;;;;2.00;1.83;;;16.50;99.90;;;;;;4960950;28;20234;-74
2023/10/20 13:06:33;;;;;;;1.43;1.27;;;16.50;99.90;;;;;;4958681;28;20264;-74
2023/10/20 13:08:59;;;;;;;1.63;1.53;;;16.50;99.90;;;;;;4942050;28;20224;-74
2023/10/20 13:11:24;;;;;;;1.53;1.43;;;16.50;99.90;;;;;;4958495;28;20284;-75
2023/10/20 13:13:50;;;;;;;1.40;1.40;;;16.50;99.90;;;;;;4960952;28;20217;-74
2023/10/20 13:16:17;;;;;;;2.27;1.23;;;16.60;99.90;;;;;;4992124;28;20699;-75